createdAt,value
2023-04-23T00:01:30.193Z,20.07
2023-04-23T00:03:59.100Z,22.87
2023-04-23T00:06:27.148Z,18.42
2023-04-23T00:08:55.589Z,18.60
2023-04-23T00:11:23.599Z,18.17
2023-04-23T00:13:51.313Z,15.07
2023-04-23T00:16:20.758Z,20.80
2023-04-23T00:18:48.565Z,19.53
2023-04-23T00:21:16.267Z,15.07
2023-04-23T00:23:43.572Z,17.57
2023-04-23T00:26:11.461Z,15.30
2023-04-23T00:28:38.997Z,15.93
2023-04-23T00:31:06.518Z,13.40
2023-04-23T00:33:34.205Z,14.20
2023-04-23T00:36:02.145Z,13.40
2023-04-23T00:38:29.530Z,14.67
2023-04-23T00:40:57.532Z,10.60
2023-04-23T00:43:24.892Z,11.10
2023-04-23T00:45:52.272Z,11.10
2023-04-23T00:48:20.825Z,12.77
2023-04-23T00:50:48.341Z,12.65
2023-04-23T00:53:16.686Z,12.93
2023-04-23T00:55:44.400Z,18.42
2023-04-23T00:58:11.837Z,12.57
2023-04-23T01:00:46.655Z,14.33
2023-04-23T01:03:15.715Z,14.63
2023-04-23T01:05:43.502Z,17.23
2023-04-23T01:08:15.396Z,15.10
2023-04-23T01:10:44.728Z,12.73
2023-04-23T01:13:13.758Z,11.68
2023-04-23T01:15:41.603Z,11.18
2023-04-23T01:18:09.409Z,13.57
2023-04-23T01:20:37.879Z,15.07
2023-04-23T01:23:06.622Z,9.93
2023-04-23T01:25:35.161Z,9.52
2023-04-23T01:28:02.952Z,11.87
2023-04-23T01:30:31.137Z,9.90
2023-04-23T01:32:59.310Z,13.95
2023-04-23T01:35:26.934Z,14.80
2023-04-23T01:37:55.467Z,14.33
2023-04-23T01:40:23.304Z,17.48
2023-04-23T01:42:50.991Z,15.30
2023-04-23T01:45:19.923Z,16.30
2023-04-23T01:47:48.167Z,12.93
2023-04-23T01:50:15.951Z,17.27
2023-04-23T01:52:44.962Z,16.43
2023-04-23T01:55:12.887Z,17.77
2023-04-23T01:57:41.477Z,23.35
2023-04-23T02:00:11.551Z,17.73
2023-04-23T02:02:42.301Z,17.13
2023-04-23T02:05:20.297Z,21.33
2023-04-23T02:07:49.505Z,20.73
2023-04-23T02:10:18.796Z,15.17
2023-04-23T02:12:47.034Z,18.60
2023-04-23T02:15:15.939Z,16.47
2023-04-23T02:17:43.397Z,17.83
2023-04-23T02:20:12.258Z,14.23
2023-04-23T02:22:42.104Z,17.12
2023-04-23T02:25:10.003Z,24.53
2023-04-23T02:27:37.815Z,20.47
2023-04-23T02:30:06.285Z,20.17
2023-04-23T02:32:36.425Z,20.70
2023-04-23T02:35:09.664Z,20.27
2023-04-23T02:40:06.970Z,19.80
2023-04-23T02:42:34.821Z,23.05
2023-04-23T02:45:02.167Z,20.90
2023-04-23T02:47:31.630Z,19.00
2023-04-23T02:49:59.365Z,21.17
2023-04-23T02:52:26.677Z,22.87
2023-04-23T02:54:54.280Z,25.27
2023-04-23T02:57:22.068Z,23.50
2023-04-23T02:59:50.489Z,16.63
2023-04-23T03:02:18.849Z,19.13
2023-04-23T03:04:46.530Z,18.63
2023-04-23T03:07:17.548Z,24.60
2023-04-23T03:09:45.391Z,19.37
2023-04-23T03:12:12.768Z,22.37
2023-04-23T03:14:40.500Z,30.73
2023-04-23T03:17:08.541Z,16.33
2023-04-23T03:19:35.883Z,15.80
2023-04-23T03:22:05.857Z,29.73
2023-04-23T03:24:34.902Z,20.03
2023-04-23T03:27:06.362Z,16.75
2023-04-23T03:29:36.454Z,19.87
2023-04-23T03:32:04.543Z,17.77
2023-04-23T03:34:32.158Z,16.90
2023-04-23T03:37:00.347Z,20.00
2023-04-23T03:39:31.527Z,21.90
2023-04-23T03:41:59.057Z,17.50
2023-04-23T03:44:27.480Z,12.15
2023-04-23T03:46:55.033Z,16.63
2023-04-23T03:49:23.065Z,28.53
2023-04-23T03:51:50.778Z,19.73
2023-04-23T03:54:20.320Z,19.67
2023-04-23T03:56:48.093Z,22.77
2023-04-23T03:59:16.196Z,23.37
2023-04-23T04:01:43.851Z,19.40
2023-04-23T04:04:11.880Z,18.40
2023-04-23T04:06:39.345Z,24.40
2023-04-23T04:09:14.199Z,15.73
2023-04-23T04:11:43.255Z,38.23
2023-04-23T04:14:10.584Z,31.10
2023-04-23T04:16:38.576Z,22.10
2023-04-23T04:19:08.071Z,25.33
2023-04-23T04:21:36.461Z,25.70
2023-04-23T04:24:05.185Z,20.73
2023-04-23T04:26:34.508Z,23.65
2023-04-23T04:29:01.939Z,22.98
2023-04-23T04:31:33.546Z,21.90
2023-04-23T04:34:02.140Z,20.53
2023-04-23T04:36:32.213Z,19.23
2023-04-23T04:39:01.650Z,20.23
2023-04-23T04:41:29.565Z,18.90
2023-04-23T04:43:58.742Z,14.17
2023-04-23T04:46:33.789Z,13.38
2023-04-23T04:49:01.510Z,15.77
2023-04-23T04:51:28.970Z,14.93
2023-04-23T04:53:56.845Z,17.43
2023-04-23T04:56:26.047Z,21.57
2023-04-23T04:58:55.719Z,22.10
2023-04-23T05:01:25.684Z,15.73
2023-04-23T05:03:54.480Z,14.97
2023-04-23T05:06:22.489Z,16.85
2023-04-23T05:08:49.950Z,37.53
2023-04-23T05:11:19.368Z,36.17
2023-04-23T05:13:47.763Z,15.20
2023-04-23T05:16:15.471Z,13.63
2023-04-23T05:18:44.475Z,12.05
2023-04-23T05:21:12.826Z,13.23
2023-04-23T05:23:41.735Z,19.00
2023-04-23T05:26:10.168Z,20.20
2023-04-23T05:28:37.529Z,15.33
2023-04-23T05:31:04.866Z,21.73
2023-04-23T05:33:49.324Z,16.80
2023-04-23T05:36:18.669Z,17.23
2023-04-23T05:38:47.601Z,16.85
2023-04-23T05:41:15.801Z,17.83
2023-04-23T05:43:43.989Z,16.07
2023-04-23T05:46:12.062Z,24.10
2023-04-23T05:48:39.442Z,15.80
2023-04-23T05:51:11.778Z,11.43
2023-04-23T05:53:40.383Z,12.60
2023-04-23T05:56:30.891Z,12.80
2023-04-23T05:58:57.164Z,15.00
2023-04-23T06:01:25.466Z,13.07
2023-04-23T06:03:53.704Z,12.85
2023-04-23T06:06:21.389Z,14.87
2023-04-23T06:08:51.132Z,13.40
2023-04-23T06:11:18.874Z,16.53
2023-04-23T06:13:46.274Z,13.57
2023-04-23T06:16:13.590Z,18.60
2023-04-23T06:18:41.391Z,13.07
2023-04-23T06:21:09.182Z,11.73
2023-04-23T06:23:37.023Z,10.10
2023-04-23T06:26:04.962Z,8.77
2023-04-23T06:28:33.573Z,9.10
2023-04-23T06:31:02.896Z,10.82
2023-04-23T06:33:30.833Z,10.35
2023-04-23T06:35:58.279Z,11.83
2023-04-23T06:38:26.088Z,11.80
2023-04-23T06:40:54.584Z,11.97
2023-04-23T06:43:22.274Z,9.00
2023-04-23T06:45:54.864Z,12.75
2023-04-23T06:48:26.766Z,9.97
2023-04-23T06:50:54.286Z,9.87
2023-04-23T06:53:22.522Z,11.33
2023-04-23T06:55:51.486Z,16.17
2023-04-23T06:58:21.492Z,10.97
2023-04-23T07:00:50.963Z,13.37
2023-04-23T07:03:20.913Z,14.82
2023-04-23T07:05:50.183Z,12.20
2023-04-23T07:08:17.760Z,11.73
2023-04-23T07:10:46.054Z,13.43
2023-04-23T07:13:16.061Z,10.13
2023-04-23T07:15:45.969Z,10.00
2023-04-23T07:18:13.862Z,11.27
2023-04-23T07:20:41.333Z,10.33
2023-04-23T07:23:09.317Z,12.97
2023-04-23T07:25:38.243Z,12.68
2023-04-23T07:28:06.062Z,14.27
2023-04-23T07:30:33.557Z,13.77
2023-04-23T07:33:02.032Z,9.70
2023-04-23T07:35:32.280Z,8.67
2023-04-23T07:38:09.079Z,10.93
2023-04-23T07:40:37.370Z,11.15
2023-04-23T07:43:05.222Z,12.90
2023-04-23T07:45:32.991Z,10.07
2023-04-23T07:48:02.544Z,14.77
2023-04-23T07:50:29.997Z,10.20
2023-04-23T07:52:58.089Z,12.27
2023-04-23T07:55:26.550Z,11.20
2023-04-23T07:57:54.297Z,10.43
2023-04-23T08:00:22.383Z,11.63
2023-04-23T08:02:52.108Z,7.93
2023-04-23T08:05:20.185Z,7.43
2023-04-23T08:07:50.311Z,12.77
2023-04-23T08:10:23.060Z,6.73
2023-04-23T08:12:50.529Z,8.93
2023-04-23T08:15:18.618Z,10.67
2023-04-23T08:17:46.479Z,7.53
2023-04-23T08:20:14.127Z,8.20
2023-04-23T08:22:47.935Z,8.67
2023-04-23T08:25:15.428Z,9.88
2023-04-23T08:27:43.342Z,9.50
2023-04-23T08:30:10.887Z,8.10
2023-04-23T08:32:40.912Z,7.87
2023-04-23T08:35:09.692Z,8.43
2023-04-23T08:37:39.146Z,7.78
2023-04-23T08:40:11.858Z,10.53
2023-04-23T08:42:44.107Z,8.37
2023-04-23T08:45:12.973Z,10.13
2023-04-23T08:47:43.451Z,10.63
2023-04-23T08:50:20.281Z,11.90
2023-04-23T08:52:51.824Z,9.70
2023-04-23T08:55:19.808Z,12.67
2023-04-23T08:57:47.812Z,7.83
2023-04-23T09:00:18.201Z,10.20
2023-04-23T09:05:35.653Z,13.27
2023-04-23T09:08:03.448Z,7.80
2023-04-23T09:10:45.370Z,8.57
2023-04-23T09:13:15.003Z,10.07
2023-04-23T09:15:46.159Z,8.77
2023-04-23T09:18:14.626Z,7.63
2023-04-23T09:20:44.418Z,8.88
2023-04-23T09:23:15.459Z,11.10
2023-04-23T09:25:43.238Z,14.57
2023-04-23T09:28:11.306Z,6.68
2023-04-23T09:30:43.595Z,13.93
2023-04-23T09:33:16.802Z,7.33
2023-04-23T09:35:48.363Z,8.80
2023-04-23T09:38:16.026Z,8.27
2023-04-23T09:40:43.408Z,8.63
2023-04-23T09:43:11.360Z,7.12
2023-04-23T09:45:48.574Z,9.25
2023-04-23T09:48:16.759Z,7.80
2023-04-23T09:50:44.469Z,9.25
2023-04-23T09:53:14.495Z,13.17
2023-04-23T09:55:45.057Z,7.73
2023-04-23T09:58:15.776Z,8.10
2023-04-23T10:00:44.157Z,6.53
2023-04-23T10:03:12.575Z,10.10
2023-04-23T10:08:16.251Z,7.93
2023-04-23T10:13:18.833Z,8.53
2023-04-23T10:15:47.742Z,12.57
2023-04-23T10:18:15.391Z,6.53
2023-04-23T10:20:43.444Z,8.80
2023-04-23T10:23:13.301Z,8.10
2023-04-23T10:25:42.542Z,9.27
2023-04-23T10:28:14.881Z,6.95
2023-04-23T10:30:43.305Z,7.82
2023-04-23T10:33:22.479Z,6.97
2023-04-23T10:35:58.038Z,10.38
2023-04-23T10:38:28.806Z,10.83
2023-04-23T10:40:58.746Z,5.97
2023-04-23T10:43:26.909Z,7.00
2023-04-23T10:45:54.677Z,9.20
2023-04-23T10:48:22.427Z,9.53
2023-04-23T10:51:24.879Z,10.53
2023-04-23T10:53:52.345Z,9.47
2023-04-23T10:56:20.986Z,11.67
2023-04-23T10:58:51.025Z,7.75
2023-04-23T11:01:19.469Z,20.13
2023-04-23T11:03:48.153Z,9.68
2023-04-23T11:06:40.160Z,6.95
2023-04-23T11:09:31.827Z,8.80
2023-04-23T11:12:01.692Z,7.17
2023-04-23T11:15:04.071Z,7.30
2023-04-23T11:17:31.557Z,7.30
2023-04-23T11:20:11.563Z,5.82
2023-04-23T11:22:41.116Z,6.03
2023-04-23T11:25:11.949Z,5.80
2023-04-23T11:27:42.292Z,10.63
2023-04-23T11:30:14.508Z,6.82
2023-04-23T11:32:44.705Z,5.47
2023-04-23T11:35:16.685Z,6.72
2023-04-23T11:37:45.823Z,7.93
2023-04-23T11:40:22.411Z,8.48
2023-04-23T11:42:57.875Z,5.12
2023-04-23T11:45:29.953Z,8.63
2023-04-23T11:48:01.662Z,7.97
2023-04-23T11:50:35.855Z,8.95
2023-04-23T11:53:11.123Z,8.88
2023-04-23T11:55:44.266Z,6.03
2023-04-23T11:58:19.809Z,7.97
2023-04-23T12:00:49.322Z,5.10
2023-04-23T12:03:17.481Z,4.53
2023-04-23T12:05:46.171Z,4.27
2023-04-23T12:08:18.586Z,12.55
2023-04-23T12:10:50.522Z,13.85
2023-04-23T12:13:39.002Z,5.75
2023-04-23T12:16:07.235Z,10.27
2023-04-23T12:18:42.413Z,5.53
2023-04-23T12:21:14.389Z,10.32
2023-04-23T12:23:45.356Z,6.30
2023-04-23T12:26:16.173Z,8.35
2023-04-23T12:29:00.145Z,7.75
2023-04-23T12:31:30.194Z,5.80
2023-04-23T12:34:05.577Z,21.45
2023-04-23T12:36:34.258Z,7.07
2023-04-23T12:39:25.170Z,7.15
2023-04-23T12:41:57.488Z,7.40
2023-04-23T12:44:25.178Z,7.50
2023-04-23T12:47:03.533Z,5.55
2023-04-23T12:49:32.533Z,12.13
2023-04-23T12:52:02.229Z,9.57
2023-04-23T12:54:31.705Z,5.90
2023-04-23T12:57:02.862Z,7.07
2023-04-23T12:59:31.952Z,6.68
2023-04-23T13:02:03.676Z,6.53
2023-04-23T13:04:34.066Z,4.82
2023-04-23T13:07:01.960Z,5.13
2023-04-23T13:09:29.670Z,5.90
2023-04-23T13:11:57.511Z,6.00
2023-04-23T13:14:25.053Z,10.15
2023-04-23T13:16:52.960Z,6.12
2023-04-23T13:19:20.888Z,7.12
2023-04-23T13:21:48.304Z,6.62
2023-04-23T13:24:16.352Z,7.85
2023-04-23T13:26:44.297Z,7.22
2023-04-23T13:29:12.096Z,6.90
2023-04-23T13:31:39.469Z,6.45
2023-04-23T13:34:07.454Z,6.33
2023-04-23T13:36:34.820Z,18.70
2023-04-23T13:39:02.324Z,4.77
2023-04-23T13:41:30.001Z,7.40
2023-04-23T13:43:57.411Z,6.30
2023-04-23T13:46:24.961Z,8.40
2023-04-23T13:48:56.572Z,8.57
2023-04-23T13:51:34.625Z,4.68
2023-04-23T13:54:03.826Z,7.50
2023-04-23T13:56:31.896Z,5.63
2023-04-23T14:01:35.843Z,3.87
2023-04-23T14:04:04.691Z,5.78
2023-04-23T14:06:32.146Z,5.72
2023-04-23T14:08:59.506Z,6.55
2023-04-23T14:11:27.478Z,8.40
2023-04-23T14:13:54.874Z,5.40
2023-04-23T14:16:22.238Z,6.32
2023-04-23T14:18:49.982Z,4.55
2023-04-23T14:21:18.342Z,4.30
2023-04-23T14:23:50.502Z,5.40
2023-04-23T14:26:41.204Z,4.20
2023-04-23T14:29:25.713Z,7.35
2023-04-23T14:31:53.592Z,6.10
2023-04-23T14:34:21.550Z,5.97
2023-04-23T14:36:49.537Z,5.20
2023-04-23T14:39:17.509Z,6.50
2023-04-23T14:41:45.558Z,6.72
2023-04-23T14:44:12.939Z,8.60
2023-04-23T14:46:40.853Z,4.25
2023-04-23T14:49:08.286Z,5.55
2023-04-23T14:51:35.909Z,7.50
2023-04-23T14:54:03.838Z,8.30
2023-04-23T14:56:31.296Z,9.70
2023-04-23T14:58:58.626Z,9.10
2023-04-23T15:01:26.412Z,9.70
2023-04-23T15:03:54.329Z,9.70
2023-04-23T15:06:21.865Z,16.97
2023-04-23T15:08:49.581Z,12.80
2023-04-23T15:11:16.981Z,7.30
2023-04-23T15:13:55.519Z,9.50
2023-04-23T15:19:06.706Z,7.57
2023-04-23T15:21:35.797Z,8.83
2023-04-23T15:26:32.954Z,11.33
2023-04-23T15:29:00.961Z,14.20
2023-04-23T15:31:31.367Z,29.10
2023-04-23T15:33:58.828Z,87.93
2023-04-23T15:36:26.570Z,83.47
2023-04-23T15:38:54.192Z,17.50
2023-04-23T15:41:22.220Z,17.27
2023-04-23T15:43:53.275Z,12.02
2023-04-23T15:46:20.743Z,14.20
2023-04-23T15:48:48.107Z,14.57
2023-04-23T15:51:16.331Z,9.37
2023-04-23T15:53:43.753Z,10.40
2023-04-23T15:56:11.293Z,11.50
2023-04-23T15:58:38.995Z,13.50
2023-04-23T16:01:07.552Z,14.87
2023-04-23T16:03:35.770Z,24.40
2023-04-23T16:06:04.413Z,37.20
2023-04-23T16:08:33.385Z,23.55
2023-04-23T16:11:04.108Z,17.10
2023-04-23T16:13:31.661Z,21.07
2023-04-23T16:15:59.065Z,15.57
2023-04-23T16:18:27.112Z,23.03
2023-04-23T16:20:54.453Z,16.63
2023-04-23T16:23:21.987Z,16.00
2023-04-23T16:25:49.768Z,18.03
2023-04-23T16:28:17.228Z,17.20
2023-04-23T16:30:44.699Z,23.20
2023-04-23T16:33:12.376Z,18.67
2023-04-23T16:35:40.152Z,21.13
2023-04-23T16:38:11.103Z,28.20
2023-04-23T16:40:40.120Z,18.27
2023-04-23T16:43:07.521Z,20.58
2023-04-23T16:45:35.193Z,16.77
2023-04-23T16:48:03.222Z,10.03
2023-04-23T16:50:30.680Z,13.37
2023-04-23T16:52:58.294Z,10.53
2023-04-23T16:55:26.171Z,13.00
2023-04-23T16:57:53.534Z,12.67
2023-04-23T17:00:20.886Z,14.10
2023-04-23T17:02:48.789Z,10.80
2023-04-23T17:05:16.314Z,13.33
2023-04-23T17:07:44.199Z,14.70
2023-04-23T17:10:12.056Z,21.83
2023-04-23T17:12:39.339Z,15.03
2023-04-23T17:15:07.178Z,10.97
2023-04-23T17:17:34.952Z,13.85
2023-04-23T17:20:04.142Z,10.77
2023-04-23T17:22:31.662Z,11.57
2023-04-23T17:24:59.322Z,61.73
2023-04-23T17:27:26.717Z,12.60
2023-04-23T17:29:54.053Z,14.23
2023-04-23T17:32:21.852Z,9.67
2023-04-23T17:34:56.408Z,9.60
2023-04-23T17:37:33.604Z,10.43
2023-04-23T17:40:01.672Z,11.67
2023-04-23T17:42:29.171Z,13.23
2023-04-23T17:44:56.883Z,10.80
2023-04-23T17:47:25.493Z,13.10
2023-04-23T17:49:53.086Z,10.02
2023-04-23T17:52:20.901Z,8.93
2023-04-23T17:54:48.220Z,14.87
2023-04-23T17:57:15.640Z,9.83
2023-04-23T17:59:43.784Z,11.23
2023-04-23T18:02:11.767Z,11.33
2023-04-23T18:04:39.684Z,11.30
2023-04-23T18:07:06.995Z,12.30
2023-04-23T18:09:34.589Z,18.37
2023-04-23T18:12:04.124Z,15.13
2023-04-23T18:14:31.575Z,12.82
2023-04-23T18:17:01.853Z,17.63
2023-04-23T18:19:31.154Z,27.40
2023-04-23T18:22:02.588Z,21.03
2023-04-23T18:24:31.271Z,14.27
2023-04-23T18:26:59.258Z,29.77
2023-04-23T18:29:29.586Z,33.63
2023-04-23T18:31:57.327Z,33.23
2023-04-23T18:34:25.124Z,12.40
2023-04-23T18:36:55.542Z,13.93
2023-04-23T18:39:23.336Z,11.83
2023-04-23T18:41:51.144Z,9.90
2023-04-23T18:44:18.754Z,10.93
2023-04-23T18:46:47.098Z,11.20
2023-04-23T18:49:30.005Z,21.60
2023-04-23T18:51:57.837Z,39.60
2023-04-23T18:54:26.120Z,53.43
2023-04-23T18:56:54.227Z,56.42
2023-04-23T18:59:21.917Z,47.28
2023-04-23T19:01:50.012Z,44.50
2023-04-23T19:04:17.663Z,26.70
2023-04-23T19:06:45.452Z,27.27
2023-04-23T19:09:12.817Z,48.87
2023-04-23T19:11:40.628Z,32.37
2023-04-23T19:14:08.358Z,34.03
2023-04-23T19:16:36.199Z,56.73
2023-04-23T19:19:03.705Z,48.97
2023-04-23T19:21:31.928Z,40.23
2023-04-23T19:23:59.492Z,27.77
2023-04-23T19:26:26.861Z,18.43
2023-04-23T19:28:54.606Z,25.27
2023-04-23T19:31:22.218Z,20.97
2023-04-23T19:33:49.608Z,17.90
2023-04-23T19:36:17.264Z,25.00
2023-04-23T19:38:44.854Z,12.77
2023-04-23T19:41:12.291Z,12.17
2023-04-23T19:43:40.826Z,14.27
2023-04-23T19:46:08.440Z,11.90
2023-04-23T19:48:35.960Z,14.67
2023-04-23T19:51:03.672Z,9.97
2023-04-23T19:53:31.128Z,17.17
2023-04-23T19:55:58.642Z,27.97
2023-04-23T19:58:26.317Z,21.37
2023-04-23T20:00:53.773Z,26.60
2023-04-23T20:03:22.204Z,17.40
2023-04-23T20:05:50.027Z,16.98
2023-04-23T20:08:26.248Z,17.00
2023-04-23T20:10:54.279Z,11.40
2023-04-23T20:13:22.034Z,17.50
2023-04-23T20:15:50.016Z,16.20
2023-04-23T20:18:18.617Z,24.60
2023-04-23T20:20:46.146Z,18.03
2023-04-23T20:23:13.519Z,23.27
2023-04-23T20:25:41.144Z,21.40
2023-04-23T20:28:11.280Z,17.17
2023-04-23T20:30:38.578Z,29.23
2023-04-23T20:33:07.279Z,32.67
2023-04-23T20:35:35.575Z,91.22
2023-04-23T20:38:03.663Z,87.43
2023-04-23T20:40:34.695Z,49.42
2023-04-23T20:43:02.126Z,54.27
2023-04-23T20:45:29.518Z,68.73
2023-04-23T20:47:57.598Z,29.33
2023-04-23T20:50:25.012Z,18.80
2023-04-23T20:52:52.603Z,88.07
2023-04-23T20:55:20.442Z,60.37
2023-04-23T20:57:47.878Z,63.57
2023-04-23T21:00:16.221Z,58.27
2023-04-23T21:02:44.425Z,39.67
2023-04-23T21:05:12.644Z,15.00
2023-04-23T21:07:40.088Z,12.63
2023-04-23T21:10:08.117Z,14.50
2023-04-23T21:12:35.951Z,40.93
2023-04-23T21:15:04.558Z,40.20
2023-04-23T21:17:32.365Z,56.25
2023-04-23T21:19:59.671Z,47.30
2023-04-23T21:22:27.100Z,45.03
2023-04-23T21:24:54.785Z,45.30
2023-04-23T21:27:22.340Z,35.20
2023-04-23T21:29:49.854Z,36.43
2023-04-23T21:32:17.733Z,30.97
2023-04-23T21:34:44.951Z,24.60
2023-04-23T21:37:12.332Z,20.73
2023-04-23T21:39:40.035Z,26.43
2023-04-23T21:42:07.635Z,49.57
2023-04-23T21:44:36.321Z,38.80
2023-04-23T21:47:04.350Z,44.17
2023-04-23T21:49:31.768Z,35.60
2023-04-23T21:52:00.615Z,31.63
2023-04-23T21:56:55.538Z,24.70
2023-04-23T21:59:24.587Z,28.20
2023-04-23T22:01:52.301Z,24.73
2023-04-23T22:04:20.800Z,25.47
2023-04-23T22:06:48.369Z,13.23
2023-04-23T22:09:15.973Z,12.30
2023-04-23T22:11:55.305Z,14.20
2023-04-23T22:14:28.734Z,12.27
2023-04-23T22:16:58.870Z,14.90
2023-04-23T22:19:26.283Z,17.70
2023-04-23T22:21:54.500Z,18.07
2023-04-23T22:24:23.317Z,27.83
2023-04-23T22:26:50.702Z,22.67
2023-04-23T22:29:18.003Z,27.93
2023-04-23T22:31:45.594Z,43.60
2023-04-23T22:34:12.798Z,42.13
2023-04-23T22:36:43.210Z,34.10
2023-04-23T22:39:10.958Z,23.20
2023-04-23T22:41:40.400Z,31.70
2023-04-23T22:44:09.501Z,33.80
2023-04-23T22:46:37.457Z,25.90
2023-04-23T22:49:08.013Z,21.03
2023-04-23T22:51:35.581Z,20.37
2023-04-23T22:54:03.237Z,18.60
2023-04-23T22:56:30.697Z,22.03
2023-04-23T22:58:58.067Z,17.17
2023-04-23T23:01:26.572Z,23.57
2023-04-23T23:03:54.350Z,31.73
2023-04-23T23:06:22.262Z,29.10
2023-04-23T23:08:49.976Z,27.77
2023-04-23T23:11:17.354Z,30.93
2023-04-23T23:13:45.558Z,27.37
2023-04-23T23:16:13.550Z,23.85
2023-04-23T23:18:40.942Z,25.83
2023-04-23T23:21:08.276Z,20.13
2023-04-23T23:23:36.685Z,19.27
2023-04-23T23:26:04.052Z,24.67
2023-04-23T23:28:31.317Z,21.27
2023-04-23T23:30:59.016Z,18.27
2023-04-23T23:33:27.358Z,18.10
2023-04-23T23:35:56.110Z,22.00
2023-04-23T23:38:23.877Z,26.70
2023-04-23T23:40:51.231Z,27.17
2023-04-23T23:43:18.582Z,17.43
2023-04-23T23:45:46.420Z,17.97
2023-04-23T23:48:13.865Z,13.90
2023-04-23T23:50:41.240Z,15.90
2023-04-23T23:53:09.251Z,14.90
2023-04-23T23:55:38.750Z,19.77
2023-04-23T23:58:06.374Z,23.70
